Terminal Aerodrome Forecast
Issued by NWS

Home | Current Version | Previous Version | Text Only | Print | Product List | Glossary Off
Versions: 1 2 3 4 5 6 7 8 9 10 11 12 13 14 15 16 17 18 19 20 21 22

000
FTUS43 KMPX 170523
TAFRNH
TAF
KRNH 170523Z 1706/1806 VRB03KT 4SM -RA BR SCT030 BKN100
      TEMPO 1706/1708 3SM -FZRASN BR SCT010 BKN030
     FM170800 36004KT 4SM -FZRASN BR OVC010
     FM171000 35004KT 2SM BR OVC007
     FM171500 33004KT P6SM BKN020
     FM171800 30004KT P6SM SCT040 SCT150
     FM172200 26005KT P6SM SCT150=

USA.gov is the U.S. government's official web portal to all federal, state and local government web resources and services.